Forside
METAR-TAF:

METAR-TAF

Lufthavne :

London City Airport

London, England

Breddekreds: 51-30N, længdekreds: 000-03E, højde: 5 m

Aktuelle vejr

Denne rapport blev lavet for 15 minutter siden, kl. 18:20 UTC
Vind 7 kt fra vestnordvest
Temperatur 10°C
Fugtighed 57%
Tryk 1022 hPa
Sigt 10 km eller mere

METAR: EGLC 231820Z AUTO 30007KT 9999 NCD 10/02 Q1022

Tid: 18:35 (18:35 UTC)

Vejrudsigter

Denne rapport blev lavet for 1 time og 33 minutter siden, kl. 17:02 UTC
Foreløbig gælder fra 23 på 18 UTC til 23 på 22 UTC
Vind 10 kt fra vestnordvest
Sigt 10 km eller mere
Spredte skyer i en højde af 4000 ft
ændring
fra 23 på 20 UTC til 23 på 22 UTC
Vind 3 kt fra varierende retninger

TAF: EGLC 231702Z 2318/2322 30010KT 9999 SCT040 BECMG 2320/2322 VRB03KT

Vejrobservationer og prognoser fra mere end 4000 lufthavne (METAR og TAF).

De gule og røde prikker repræsenterer de meteorologiske stationer.

Flyt musen over at se navnet på stationen.

Så klik over at se vejr observationer og prognoser.

At skifte det kort: Klik på de grønne knapper med et sort kors for at zoome ind; på den grønne knap med en bindestreg for at zoome ud; eller på de grønne pile for tilstødende kort.


METAR-TAF: